sensor_id;sensor_type;location;lat;lon;timestamp;temperature;humidity
25360;DHT22;13311;51.386;0.016;2022-07-24T00:02:06;23.10;79.80
25360;DHT22;13311;51.386;0.016;2022-07-24T00:07:07;23.10;79.80
25360;DHT22;13311;51.386;0.016;2022-07-24T00:12:07;23.10;80.10
25360;DHT22;13311;51.386;0.016;2022-07-24T00:17:08;23.00;80.70
25360;DHT22;13311;51.386;0.016;2022-07-24T00:22:09;23.10;80.50
25360;DHT22;13311;51.386;0.016;2022-07-24T00:27:10;23.20;79.40
25360;DHT22;13311;51.386;0.016;2022-07-24T00:32:11;23.10;79.70
25360;DHT22;13311;51.386;0.016;2022-07-24T00:37:12;23.20;80.00
25360;DHT22;13311;51.386;0.016;2022-07-24T00:42:13;23.10;80.80
25360;DHT22;13311;51.386;0.016;2022-07-24T00:47:13;23.10;80.30
25360;DHT22;13311;51.386;0.016;2022-07-24T00:52:14;23.20;79.80
25360;DHT22;13311;51.386;0.016;2022-07-24T00:57:15;23.00;80.80
25360;DHT22;13311;51.386;0.016;2022-07-24T01:02:16;23.00;80.60
25360;DHT22;13311;51.386;0.016;2022-07-24T01:07:17;23.00;81.70
25360;DHT22;13311;51.386;0.016;2022-07-24T01:12:18;23.10;80.90
25360;DHT22;13311;51.386;0.016;2022-07-24T01:17:19;23.00;81.40
25360;DHT22;13311;51.386;0.016;2022-07-24T01:22:20;22.90;82.10
25360;DHT22;13311;51.386;0.016;2022-07-24T01:27:22;23.10;79.80
25360;DHT22;13311;51.386;0.016;2022-07-24T01:32:23;23.00;81.60
25360;DHT22;13311;51.386;0.016;2022-07-24T01:37:24;22.90;81.70
25360;DHT22;13311;51.386;0.016;2022-07-24T01:42:25;22.90;81.60
25360;DHT22;13311;51.386;0.016;2022-07-24T01:47:26;22.90;81.60
25360;DHT22;13311;51.386;0.016;2022-07-24T01:52:26;22.90;81.00
25360;DHT22;13311;51.386;0.016;2022-07-24T01:57:28;22.90;80.30
25360;DHT22;13311;51.386;0.016;2022-07-24T02:02:29;22.80;81.90
25360;DHT22;13311;51.386;0.016;2022-07-24T02:07:30;22.80;81.70
25360;DHT22;13311;51.386;0.016;2022-07-24T02:12:30;22.80;81.20
25360;DHT22;13311;51.386;0.016;2022-07-24T02:17:31;22.80;81.30
25360;DHT22;13311;51.386;0.016;2022-07-24T02:22:32;22.80;81.70
25360;DHT22;13311;51.386;0.016;2022-07-24T02:27:34;22.70;81.00
25360;DHT22;13311;51.386;0.016;2022-07-24T02:32:35;22.60;82.20
25360;DHT22;13311;51.386;0.016;2022-07-24T02:37:37;22.70;81.70
25360;DHT22;13311;51.386;0.016;2022-07-24T02:42:39;22.60;82.30
25360;DHT22;13311;51.386;0.016;2022-07-24T02:47:52;22.60;80.50
25360;DHT22;13311;51.386;0.016;2022-07-24T02:52:54;22.60;80.50
25360;DHT22;13311;51.386;0.016;2022-07-24T02:57:57;22.60;81.80
25360;DHT22;13311;51.386;0.016;2022-07-24T03:02:58;22.60;82.70
25360;DHT22;13311;51.386;0.016;2022-07-24T03:07:59;22.50;81.70
25360;DHT22;13311;51.386;0.016;2022-07-24T03:13:00;22.50;82.70
25360;DHT22;13311;51.386;0.016;2022-07-24T03:18:00;22.40;82.10
25360;DHT22;13311;51.386;0.016;2022-07-24T03:23:01;22.40;83.00
25360;DHT22;13311;51.386;0.016;2022-07-24T03:28:02;22.30;83.20
25360;DHT22;13311;51.386;0.016;2022-07-24T03:33:03;22.30;84.00
25360;DHT22;13311;51.386;0.016;2022-07-24T03:38:04;22.30;83.70
25360;DHT22;13311;51.386;0.016;2022-07-24T03:43:05;22.20;84.30
25360;DHT22;13311;51.386;0.016;2022-07-24T03:48:06;22.20;83.00
25360;DHT22;13311;51.386;0.016;2022-07-24T03:53:06;22.30;83.80
25360;DHT22;13311;51.386;0.016;2022-07-24T03:58:07;22.20;84.10
25360;DHT22;13311;51.386;0.016;2022-07-24T04:03:08;22.30;82.80
25360;DHT22;13311;51.386;0.016;2022-07-24T04:08:09;22.20;83.30
25360;DHT22;13311;51.386;0.016;2022-07-24T04:13:09;22.10;83.30
25360;DHT22;13311;51.386;0.016;2022-07-24T04:18:10;22.10;84.20
25360;DHT22;13311;51.386;0.016;2022-07-24T04:23:11;22.00;84.70
25360;DHT22;13311;51.386;0.016;2022-07-24T04:28:12;22.00;84.30
25360;DHT22;13311;51.386;0.016;2022-07-24T04:33:13;22.00;84.30
25360;DHT22;13311;51.386;0.016;2022-07-24T04:38:14;22.00;84.60
25360;DHT22;13311;51.386;0.016;2022-07-24T04:43:15;22.00;83.60
25360;DHT22;13311;51.386;0.016;2022-07-24T04:48:16;22.00;84.60
25360;DHT22;13311;51.386;0.016;2022-07-24T04:53:17;22.00;83.60
25360;DHT22;13311;51.386;0.016;2022-07-24T04:58:17;22.10;84.50
25360;DHT22;13311;51.386;0.016;2022-07-24T05:03:18;22.10;83.80
25360;DHT22;13311;51.386;0.016;2022-07-24T05:08:19;22.30;82.60
25360;DHT22;13311;51.386;0.016;2022-07-24T05:13:20;22.40;83.80
25360;DHT22;13311;51.386;0.016;2022-07-24T05:18:21;22.30;83.70
25360;DHT22;13311;51.386;0.016;2022-07-24T05:23:21;22.30;84.80
25360;DHT22;13311;51.386;0.016;2022-07-24T05:28:22;22.30;85.10
25360;DHT22;13311;51.386;0.016;2022-07-24T05:33:23;22.60;84.50
25360;DHT22;13311;51.386;0.016;2022-07-24T05:38:24;23.00;83.50
25360;DHT22;13311;51.386;0.016;2022-07-24T05:43:25;23.30;81.40
25360;DHT22;13311;51.386;0.016;2022-07-24T05:48:25;23.30;81.90
25360;DHT22;13311;51.386;0.016;2022-07-24T05:53:26;23.30;81.50
25360;DHT22;13311;51.386;0.016;2022-07-24T05:58:27;23.40;81.00
25360;DHT22;13311;51.386;0.016;2022-07-24T06:03:28;23.60;79.30
25360;DHT22;13311;51.386;0.016;2022-07-24T06:08:29;23.70;80.40
25360;DHT22;13311;51.386;0.016;2022-07-24T06:13:29;24.30;78.70
25360;DHT22;13311;51.386;0.016;2022-07-24T06:18:30;24.80;77.40
25360;DHT22;13311;51.386;0.016;2022-07-24T06:23:31;25.70;75.50
25360;DHT22;13311;51.386;0.016;2022-07-24T06:28:33;26.40;72.50
25360;DHT22;13311;51.386;0.016;2022-07-24T06:33:33;26.70;69.90
25360;DHT22;13311;51.386;0.016;2022-07-24T06:38:36;26.90;69.50
25360;DHT22;13311;51.386;0.016;2022-07-24T06:43:37;27.30;69.50
25360;DHT22;13311;51.386;0.016;2022-07-24T06:48:38;27.40;68.10
25360;DHT22;13311;51.386;0.016;2022-07-24T06:53:39;27.70;66.90
25360;DHT22;13311;51.386;0.016;2022-07-24T06:58:42;27.50;66.80
25360;DHT22;13311;51.386;0.016;2022-07-24T07:03:43;27.90;66.50
25360;DHT22;13311;51.386;0.016;2022-07-24T07:08:44;28.40;65.30
25360;DHT22;13311;51.386;0.016;2022-07-24T07:13:44;28.90;62.50
25360;DHT22;13311;51.386;0.016;2022-07-24T07:18:45;29.10;61.50
25360;DHT22;13311;51.386;0.016;2022-07-24T07:23:46;29.00;59.60
25360;DHT22;13311;51.386;0.016;2022-07-24T07:28:47;29.10;60.10
25360;DHT22;13311;51.386;0.016;2022-07-24T07:33:47;29.00;59.60
25360;DHT22;13311;51.386;0.016;2022-07-24T07:38:49;28.90;60.00
25360;DHT22;13311;51.386;0.016;2022-07-24T07:43:51;29.10;59.60
25360;DHT22;13311;51.386;0.016;2022-07-24T07:48:52;29.10;59.30
25360;DHT22;13311;51.386;0.016;2022-07-24T07:53:53;29.20;59.40
25360;DHT22;13311;51.386;0.016;2022-07-24T07:58:54;29.20;59.50
25360;DHT22;13311;51.386;0.016;2022-07-24T08:03:55;29.20;60.40
25360;DHT22;13311;51.386;0.016;2022-07-24T08:08:56;29.10;59.30
25360;DHT22;13311;51.386;0.016;2022-07-24T08:13:56;29.00;60.00
25360;DHT22;13311;51.386;0.016;2022-07-24T08:18:57;29.10;59.50
25360;DHT22;13311;51.386;0.016;2022-07-24T08:23:58;29.20;59.70
25360;DHT22;13311;51.386;0.016;2022-07-24T08:28:59;29.20;59.80
25360;DHT22;13311;51.386;0.016;2022-07-24T08:34:00;29.50;59.40
25360;DHT22;13311;51.386;0.016;2022-07-24T08:39:00;29.60;57.80
25360;DHT22;13311;51.386;0.016;2022-07-24T08:44:03;29.60;57.70
25360;DHT22;13311;51.386;0.016;2022-07-24T08:49:11;29.80;56.20
25360;DHT22;13311;51.386;0.016;2022-07-24T08:54:12;29.90;56.20
25360;DHT22;13311;51.386;0.016;2022-07-24T08:59:21;30.00;55.60
25360;DHT22;13311;51.386;0.016;2022-07-24T09:04:46;29.80;55.60
25360;DHT22;13311;51.386;0.016;2022-07-24T09:20:16;30.50;54.70
25360;DHT22;13311;51.386;0.016;2022-07-24T09:25:22;30.60;53.20
25360;DHT22;13311;51.386;0.016;2022-07-24T09:35:39;31.30;55.30
25360;DHT22;13311;51.386;0.016;2022-07-24T09:40:51;31.40;51.80
25360;DHT22;13311;51.386;0.016;2022-07-24T09:46:01;31.40;53.00
25360;DHT22;13311;51.386;0.016;2022-07-24T09:51:16;31.40;52.00
25360;DHT22;13311;51.386;0.016;2022-07-24T09:56:19;31.50;54.00
25360;DHT22;13311;51.386;0.016;2022-07-24T10:01:23;31.50;50.60
25360;DHT22;13311;51.386;0.016;2022-07-24T10:06:25;31.60;51.60
25360;DHT22;13311;51.386;0.016;2022-07-24T10:11:27;31.70;53.30
25360;DHT22;13311;51.386;0.016;2022-07-24T10:16:30;31.60;49.70
25360;DHT22;13311;51.386;0.016;2022-07-24T10:21:33;31.80;50.90
25360;DHT22;13311;51.386;0.016;2022-07-24T10:26:39;31.90;48.50
25360;DHT22;13311;51.386;0.016;2022-07-24T10:31:53;31.90;50.50
25360;DHT22;13311;51.386;0.016;2022-07-24T10:42:25;31.90;48.40
25360;DHT22;13311;51.386;0.016;2022-07-24T10:47:25;32.10;48.70
25360;DHT22;13311;51.386;0.016;2022-07-24T10:52:30;32.30;47.30
25360;DHT22;13311;51.386;0.016;2022-07-24T10:57:46;32.20;46.90
25360;DHT22;13311;51.386;0.016;2022-07-24T11:02:56;32.10;47.00
25360;DHT22;13311;51.386;0.016;2022-07-24T11:08:25;32.10;47.70
25360;DHT22;13311;51.386;0.016;2022-07-24T11:18:33;32.70;49.10
25360;DHT22;13311;51.386;0.016;2022-07-24T11:23:34;32.50;46.50
25360;DHT22;13311;51.386;0.016;2022-07-24T11:28:35;32.70;47.20
25360;DHT22;13311;51.386;0.016;2022-07-24T11:33:37;32.80;49.00
25360;DHT22;13311;51.386;0.016;2022-07-24T11:38:39;32.80;46.90
25360;DHT22;13311;51.386;0.016;2022-07-24T11:43:52;32.90;46.70
25360;DHT22;13311;51.386;0.016;2022-07-24T11:49:04;32.70;47.70
25360;DHT22;13311;51.386;0.016;2022-07-24T11:54:06;32.80;47.30
25360;DHT22;13311;51.386;0.016;2022-07-24T11:59:31;32.80;47.90
25360;DHT22;13311;51.386;0.016;2022-07-24T12:04:33;33.00;49.60
25360;DHT22;13311;51.386;0.016;2022-07-24T12:10:04;32.90;49.20
25360;DHT22;13311;51.386;0.016;2022-07-24T12:15:07;32.70;45.60
25360;DHT22;13311;51.386;0.016;2022-07-24T12:20:09;32.50;46.60
25360;DHT22;13311;51.386;0.016;2022-07-24T12:25:11;32.20;45.10
25360;DHT22;13311;51.386;0.016;2022-07-24T12:30:32;31.70;47.20
25360;DHT22;13311;51.386;0.016;2022-07-24T12:35:58;31.50;46.80
25360;DHT22;13311;51.386;0.016;2022-07-24T12:41:10;31.50;49.10
25360;DHT22;13311;51.386;0.016;2022-07-24T12:46:12;31.60;48.00
25360;DHT22;13311;51.386;0.016;2022-07-24T12:51:13;31.60;49.10
25360;DHT22;13311;51.386;0.016;2022-07-24T12:56:16;31.50;47.40
25360;DHT22;13311;51.386;0.016;2022-07-24T13:01:18;31.40;48.60
25360;DHT22;13311;51.386;0.016;2022-07-24T13:06:39;31.60;48.10
25360;DHT22;13311;51.386;0.016;2022-07-24T13:11:44;31.50;47.90
25360;DHT22;13311;51.386;0.016;2022-07-24T13:16:47;31.20;47.90
25360;DHT22;13311;51.386;0.016;2022-07-24T13:21:49;31.40;48.50
25360;DHT22;13311;51.386;0.016;2022-07-24T13:26:51;31.40;49.60
25360;DHT22;13311;51.386;0.016;2022-07-24T13:31:52;31.30;48.30
25360;DHT22;13311;51.386;0.016;2022-07-24T13:36:53;31.20;49.70
25360;DHT22;13311;51.386;0.016;2022-07-24T13:41:54;31.30;49.60
25360;DHT22;13311;51.386;0.016;2022-07-24T13:46:55;31.00;49.30
25360;DHT22;13311;51.386;0.016;2022-07-24T13:51:56;31.20;49.60
25360;DHT22;13311;51.386;0.016;2022-07-24T13:56:57;31.30;50.50
25360;DHT22;13311;51.386;0.016;2022-07-24T14:01:58;31.30;47.90
25360;DHT22;13311;51.386;0.016;2022-07-24T14:06:59;31.40;51.20
25360;DHT22;13311;51.386;0.016;2022-07-24T14:12:00;31.30;46.30
25360;DHT22;13311;51.386;0.016;2022-07-24T14:17:01;31.20;48.70
25360;DHT22;13311;51.386;0.016;2022-07-24T14:22:02;31.00;47.40
25360;DHT22;13311;51.386;0.016;2022-07-24T14:27:03;31.20;46.90
25360;DHT22;13311;51.386;0.016;2022-07-24T14:32:04;31.20;47.20
25360;DHT22;13311;51.386;0.016;2022-07-24T14:37:05;31.10;46.80
25360;DHT22;13311;51.386;0.016;2022-07-24T14:42:06;31.10;47.90
25360;DHT22;13311;51.386;0.016;2022-07-24T14:47:06;31.20;46.50
25360;DHT22;13311;51.386;0.016;2022-07-24T14:52:07;31.00;45.80
25360;DHT22;13311;51.386;0.016;2022-07-24T14:57:08;30.80;46.00
25360;DHT22;13311;51.386;0.016;2022-07-24T15:02:10;30.90;46.80
25360;DHT22;13311;51.386;0.016;2022-07-24T15:07:11;30.90;46.00
25360;DHT22;13311;51.386;0.016;2022-07-24T15:12:12;30.80;47.50
25360;DHT22;13311;51.386;0.016;2022-07-24T15:17:12;30.70;46.30
25360;DHT22;13311;51.386;0.016;2022-07-24T15:22:13;30.80;48.20
25360;DHT22;13311;51.386;0.016;2022-07-24T15:27:14;31.00;46.50
25360;DHT22;13311;51.386;0.016;2022-07-24T15:32:15;31.00;46.60
25360;DHT22;13311;51.386;0.016;2022-07-24T15:37:15;31.00;47.30
25360;DHT22;13311;51.386;0.016;2022-07-24T15:42:16;31.10;49.60
25360;DHT22;13311;51.386;0.016;2022-07-24T15:47:17;31.20;46.10
25360;DHT22;13311;51.386;0.016;2022-07-24T15:52:18;30.80;47.00
25360;DHT22;13311;51.386;0.016;2022-07-24T15:57:19;30.70;46.40
25360;DHT22;13311;51.386;0.016;2022-07-24T16:02:19;30.50;46.70
25360;DHT22;13311;51.386;0.016;2022-07-24T16:07:22;30.60;47.20
25360;DHT22;13311;51.386;0.016;2022-07-24T16:12:24;30.70;47.60
25360;DHT22;13311;51.386;0.016;2022-07-24T16:17:25;30.80;49.10
25360;DHT22;13311;51.386;0.016;2022-07-24T16:22:27;30.80;46.40
25360;DHT22;13311;51.386;0.016;2022-07-24T16:27:28;31.00;48.30
25360;DHT22;13311;51.386;0.016;2022-07-24T16:32:29;30.90;46.60
25360;DHT22;13311;51.386;0.016;2022-07-24T16:37:30;30.50;47.30
25360;DHT22;13311;51.386;0.016;2022-07-24T16:42:33;30.60;48.30
25360;DHT22;13311;51.386;0.016;2022-07-24T16:47:34;30.70;47.70
25360;DHT22;13311;51.386;0.016;2022-07-24T16:52:34;30.40;45.70
25360;DHT22;13311;51.386;0.016;2022-07-24T16:57:35;30.30;45.80
25360;DHT22;13311;51.386;0.016;2022-07-24T17:02:36;30.40;46.50
25360;DHT22;13311;51.386;0.016;2022-07-24T17:07:37;30.50;47.00
25360;DHT22;13311;51.386;0.016;2022-07-24T17:12:38;30.20;46.90
25360;DHT22;13311;51.386;0.016;2022-07-24T17:17:39;30.00;47.40
25360;DHT22;13311;51.386;0.016;2022-07-24T17:22:59;30.30;47.60
25360;DHT22;13311;51.386;0.016;2022-07-24T17:28:02;30.20;46.40
25360;DHT22;13311;51.386;0.016;2022-07-24T17:33:06;30.30;48.20
25360;DHT22;13311;51.386;0.016;2022-07-24T17:38:07;30.30;45.90
25360;DHT22;13311;51.386;0.016;2022-07-24T17:43:08;30.20;45.00
25360;DHT22;13311;51.386;0.016;2022-07-24T17:48:09;29.80;46.00
25360;DHT22;13311;51.386;0.016;2022-07-24T17:53:09;29.70;48.70
25360;DHT22;13311;51.386;0.016;2022-07-24T17:58:10;29.70;47.60
25360;DHT22;13311;51.386;0.016;2022-07-24T18:03:11;29.90;48.90
25360;DHT22;13311;51.386;0.016;2022-07-24T18:08:12;29.80;48.60
25360;DHT22;13311;51.386;0.016;2022-07-24T18:13:13;29.60;46.40
25360;DHT22;13311;51.386;0.016;2022-07-24T18:18:14;29.60;49.10
25360;DHT22;13311;51.386;0.016;2022-07-24T18:23:15;29.70;48.20
25360;DHT22;13311;51.386;0.016;2022-07-24T18:28:15;29.60;48.90
25360;DHT22;13311;51.386;0.016;2022-07-24T18:33:16;29.70;47.70
25360;DHT22;13311;51.386;0.016;2022-07-24T18:38:17;29.70;48.50
25360;DHT22;13311;51.386;0.016;2022-07-24T18:43:18;29.80;48.80
25360;DHT22;13311;51.386;0.016;2022-07-24T18:48:19;29.70;49.00
25360;DHT22;13311;51.386;0.016;2022-07-24T18:53:20;29.90;49.30
25360;DHT22;13311;51.386;0.016;2022-07-24T18:58:20;29.90;48.30
25360;DHT22;13311;51.386;0.016;2022-07-24T19:03:21;29.80;49.70
25360;DHT22;13311;51.386;0.016;2022-07-24T19:08:22;29.70;50.30
25360;DHT22;13311;51.386;0.016;2022-07-24T19:13:23;29.50;50.00
25360;DHT22;13311;51.386;0.016;2022-07-24T19:18:24;29.40;50.40
25360;DHT22;13311;51.386;0.016;2022-07-24T19:23:25;29.50;50.60
25360;DHT22;13311;51.386;0.016;2022-07-24T19:28:25;29.40;50.80
25360;DHT22;13311;51.386;0.016;2022-07-24T19:33:26;29.20;50.80
25360;DHT22;13311;51.386;0.016;2022-07-24T19:38:27;29.10;50.90
25360;DHT22;13311;51.386;0.016;2022-07-24T19:43:28;29.40;51.00
25360;DHT22;13311;51.386;0.016;2022-07-24T19:48:29;29.40;51.50
25360;DHT22;13311;51.386;0.016;2022-07-24T19:53:30;29.30;51.90
25360;DHT22;13311;51.386;0.016;2022-07-24T19:58:31;29.10;51.70
25360;DHT22;13311;51.386;0.016;2022-07-24T20:03:32;29.10;52.00
25360;DHT22;13311;51.386;0.016;2022-07-24T20:08:33;28.80;51.90
25360;DHT22;13311;51.386;0.016;2022-07-24T20:13:36;28.90;52.00
25360;DHT22;13311;51.386;0.016;2022-07-24T20:18:37;28.60;51.80
25360;DHT22;13311;51.386;0.016;2022-07-24T20:23:38;28.40;51.50
25360;DHT22;13311;51.386;0.016;2022-07-24T20:28:39;28.30;51.20
25360;DHT22;13311;51.386;0.016;2022-07-24T20:33:40;28.30;52.50
25360;DHT22;13311;51.386;0.016;2022-07-24T20:38:42;28.30;51.80
25360;DHT22;13311;51.386;0.016;2022-07-24T20:43:43;28.10;52.40
25360;DHT22;13311;51.386;0.016;2022-07-24T20:48:44;27.90;51.90
25360;DHT22;13311;51.386;0.016;2022-07-24T20:53:44;27.90;52.20
25360;DHT22;13311;51.386;0.016;2022-07-24T20:58:45;27.70;52.70
25360;DHT22;13311;51.386;0.016;2022-07-24T21:03:46;27.60;53.30
25360;DHT22;13311;51.386;0.016;2022-07-24T21:08:47;27.50;53.50
25360;DHT22;13311;51.386;0.016;2022-07-24T21:13:47;27.60;53.80
25360;DHT22;13311;51.386;0.016;2022-07-24T21:18:48;27.60;53.90
25360;DHT22;13311;51.386;0.016;2022-07-24T21:23:49;27.40;54.30
25360;DHT22;13311;51.386;0.016;2022-07-24T21:28:50;27.20;55.60
25360;DHT22;13311;51.386;0.016;2022-07-24T21:33:51;27.00;57.10
25360;DHT22;13311;51.386;0.016;2022-07-24T21:38:51;26.90;58.10
25360;DHT22;13311;51.386;0.016;2022-07-24T21:43:52;27.00;57.50
25360;DHT22;13311;51.386;0.016;2022-07-24T21:48:53;27.00;58.50
25360;DHT22;13311;51.386;0.016;2022-07-24T21:53:54;26.80;59.20
25360;DHT22;13311;51.386;0.016;2022-07-24T21:58:55;26.60;59.80
25360;DHT22;13311;51.386;0.016;2022-07-24T22:03:55;26.30;62.00
25360;DHT22;13311;51.386;0.016;2022-07-24T22:08:56;26.30;63.70
25360;DHT22;13311;51.386;0.016;2022-07-24T22:13:57;26.30;63.80
25360;DHT22;13311;51.386;0.016;2022-07-24T22:18:58;26.10;64.90
25360;DHT22;13311;51.386;0.016;2022-07-24T22:23:59;26.20;64.70
25360;DHT22;13311;51.386;0.016;2022-07-24T22:29:00;26.10;63.70
25360;DHT22;13311;51.386;0.016;2022-07-24T22:34:01;26.00;65.60
25360;DHT22;13311;51.386;0.016;2022-07-24T22:39:05;26.00;66.30
25360;DHT22;13311;51.386;0.016;2022-07-24T22:44:07;25.70;68.20
25360;DHT22;13311;51.386;0.016;2022-07-24T22:49:08;25.60;68.80
25360;DHT22;13311;51.386;0.016;2022-07-24T22:54:09;25.50;68.90
25360;DHT22;13311;51.386;0.016;2022-07-24T22:59:10;25.60;67.30
25360;DHT22;13311;51.386;0.016;2022-07-24T23:04:11;25.70;67.40
25360;DHT22;13311;51.386;0.016;2022-07-24T23:09:12;25.70;67.90
25360;DHT22;13311;51.386;0.016;2022-07-24T23:14:12;25.50;68.40
25360;DHT22;13311;51.386;0.016;2022-07-24T23:19:13;25.40;68.70
25360;DHT22;13311;51.386;0.016;2022-07-24T23:24:14;25.50;69.10
25360;DHT22;13311;51.386;0.016;2022-07-24T23:29:16;25.30;69.90
25360;DHT22;13311;51.386;0.016;2022-07-24T23:34:17;25.40;69.90
25360;DHT22;13311;51.386;0.016;2022-07-24T23:39:18;25.40;69.40
25360;DHT22;13311;51.386;0.016;2022-07-24T23:44:19;25.50;68.60
25360;DHT22;13311;51.386;0.016;2022-07-24T23:49:20;25.40;70.40
25360;DHT22;13311;51.386;0.016;2022-07-24T23:54:20;25.50;70.60
25360;DHT22;13311;51.386;0.016;2022-07-24T23:59:21;25.60;70.00
